FCN587 MSLP-KMLB
Flight info
| Callsign | FCN587 |
|---|---|
| Flight time | 2h 31m |
| Altitude | 36000 |
| Route | NAGEL2W NAGEL UL471 PUBCO/N0454F380 UL471 IKBIX/N0458F370 Y183 PEAKY Q87 GRIDS/N0456F380 DCT COREA JOKRS4 |
| Aircraft | A320/M-SDE3FGHIRWY/LB1 |
Departure
| Time | 2026-04-22 22:13 |
|---|---|
| Airport | El Salvador International Airport Saint Óscar Arnulfo Romero y Galdámez (MSLP) |
Arrival
| Time | 2026-04-23 00:44 |
|---|---|
| Airport | Melbourne Orlando International Airport (KMLB) |
| Time | Latitude | Longitude | Altitude | Speed | Heading |
|---|---|---|---|---|---|
| 2026-04-22 21:49 | 13.44357 | -89.05849 | 94 ft | 0 kts | 340° |
| 2026-04-22 21:53 | 13.44356 | -89.05849 | 94 ft | 0 kts | 340° |
| 2026-04-22 22:01 | 13.44353 | -89.05848 | 92 ft | 2 kts | 340° |
| 2026-04-22 22:01 | 13.44336 | -89.05842 | 93 ft | 3 kts | 340° |
| 2026-04-22 22:01 | 13.44318 | -89.05835 | 90 ft | 3 kts | 343° |
| 2026-04-22 22:02 | 13.44299 | -89.05831 | 92 ft | 3 kts | 7° |
| 2026-04-22 22:02 | 13.44281 | -89.05837 | 90 ft | 3 kts | 43° |
| 2026-04-22 22:02 | 13.44270 | -89.05852 | 92 ft | 2 kts | 67° |
| 2026-04-22 22:02 | 13.44266 | -89.05862 | 92 ft | 2 kts | 71° |
| 2026-04-22 22:03 | 13.44261 | -89.05879 | 91 ft | 1 kts | 71° |
| 2026-04-22 22:03 | 13.44260 | -89.05881 | 91 ft | 2 kts | 70° |
| 2026-04-22 22:05 | 13.44264 | -89.05871 | 92 ft | 2 kts | 70° |
| 2026-04-22 22:05 | 13.44282 | -89.05820 | 91 ft | 16 kts | 70° |
| 2026-04-22 22:06 | 13.44321 | -89.05712 | 93 ft | 15 kts | 69° |
| 2026-04-22 22:06 | 13.44356 | -89.05615 | 92 ft | 14 kts | 69° |
| 2026-04-22 22:06 | 13.44388 | -89.05528 | 92 ft | 12 kts | 69° |
| 2026-04-22 22:06 | 13.44415 | -89.05452 | 92 ft | 11 kts | 72° |
| 2026-04-22 22:07 | 13.44394 | -89.05391 | 92 ft | 9 kts | 136° |
| 2026-04-22 22:07 | 13.44365 | -89.05352 | 92 ft | 6 kts | 101° |
| 2026-04-22 22:07 | 13.44372 | -89.05315 | 92 ft | 5 kts | 72° |
| 2026-04-22 22:07 | 13.44386 | -89.05272 | 95 ft | 13 kts | 70° |
| 2026-04-22 22:08 | 13.44420 | -89.05178 | 94 ft | 13 kts | 69° |
| 2026-04-22 22:08 | 13.44450 | -89.05096 | 93 ft | 12 kts | 69° |
| 2026-04-22 22:08 | 13.44477 | -89.05023 | 94 ft | 11 kts | 69° |
| 2026-04-22 22:08 | 13.44517 | -89.04912 | 96 ft | 19 kts | 70° |
| 2026-04-22 22:09 | 13.44561 | -89.04790 | 95 ft | 17 kts | 70° |
| 2026-04-22 22:09 | 13.44600 | -89.04679 | 93 ft | 15 kts | 69° |
| 2026-04-22 22:09 | 13.44636 | -89.04582 | 93 ft | 14 kts | 69° |
| 2026-04-22 22:09 | 13.44665 | -89.04496 | 93 ft | 12 kts | 71° |
| 2026-04-22 22:10 | 13.44691 | -89.04422 | 95 ft | 10 kts | 69° |
| 2026-04-22 22:10 | 13.44715 | -89.04358 | 93 ft | 9 kts | 69° |
| 2026-04-22 22:10 | 13.44731 | -89.04301 | 93 ft | 8 kts | 81° |
| 2026-04-22 22:10 | 13.44695 | -89.04236 | 95 ft | 12 kts | 156° |
| 2026-04-22 22:11 | 13.44637 | -89.04214 | 100 ft | 5 kts | 163° |
| 2026-04-22 22:11 | 13.44603 | -89.04210 | 101 ft | 8 kts | 180° |
| 2026-04-22 22:11 | 13.44566 | -89.04238 | 100 ft | 6 kts | 243° |
| 2026-04-22 22:11 | 13.44553 | -89.04277 | 100 ft | 5 kts | 250° |
| 2026-04-22 22:12 | 13.44537 | -89.04322 | 100 ft | 13 kts | 250° |
| 2026-04-22 22:12 | 13.44416 | -89.04659 | 99 ft | 86 kts | 250° |
| 2026-04-22 22:12 | 13.44142 | -89.05430 | 93 ft | 142 kts | 250° |
| 2026-04-22 22:12 | 13.43764 | -89.06487 | 466 ft | 160 kts | 249° |
| 2026-04-22 22:13 | 13.43378 | -89.07574 | 1056 ft | 164 kts | 249° |
| 2026-04-22 22:13 | 13.42983 | -89.08680 | 1742 ft | 164 kts | 248° |
| 2026-04-22 22:13 | 13.42576 | -89.09824 | 2232 ft | 181 kts | 247° |
| 2026-04-22 22:13 | 13.42121 | -89.11114 | 2609 ft | 203 kts | 249° |
| 2026-04-22 22:14 | 13.41636 | -89.12559 | 2925 ft | 225 kts | 254° |
| 2026-04-22 22:14 | 13.41308 | -89.14212 | 3284 ft | 249 kts | 263° |
| 2026-04-22 22:14 | 13.41235 | -89.16069 | 3696 ft | 270 kts | 273° |
| 2026-04-22 22:14 | 13.41482 | -89.17985 | 4402 ft | 278 kts | 283° |
| 2026-04-22 22:15 | 13.42071 | -89.19920 | 5197 ft | 283 kts | 294° |
| 2026-04-22 22:15 | 13.42980 | -89.21690 | 5998 ft | 285 kts | 305° |
| 2026-04-22 22:15 | 13.44138 | -89.23354 | 6809 ft | 288 kts | 308° |
| 2026-04-22 22:15 | 13.45321 | -89.25021 | 7615 ft | 290 kts | 308° |
| 2026-04-22 22:16 | 13.46651 | -89.26586 | 8404 ft | 292 kts | 319° |
| 2026-04-22 22:16 | 13.48288 | -89.27817 | 9210 ft | 292 kts | 335° |
| 2026-04-22 22:16 | 13.50140 | -89.28684 | 9980 ft | 294 kts | 343° |
| 2026-04-22 22:16 | 13.52146 | -89.29117 | 10703 ft | 296 kts | 356° |
| 2026-04-22 22:17 | 13.54211 | -89.29079 | 11420 ft | 298 kts | 8° |
| 2026-04-22 22:17 | 13.56232 | -89.28572 | 12101 ft | 302 kts | 21° |
| 2026-04-22 22:17 | 13.58191 | -89.27714 | 12570 ft | 315 kts | 23° |
| 2026-04-22 22:17 | 13.60277 | -89.26793 | 12719 ft | 338 kts | 23° |
| 2026-04-22 22:18 | 13.62515 | -89.25817 | 12850 ft | 359 kts | 23° |
| 2026-04-22 22:18 | 13.64873 | -89.24796 | 13073 ft | 375 kts | 22° |
| 2026-04-22 22:18 | 13.67299 | -89.23745 | 13604 ft | 381 kts | 22° |
| 2026-04-22 22:18 | 13.69758 | -89.22678 | 14143 ft | 386 kts | 22° |
| 2026-04-22 22:19 | 13.72243 | -89.21595 | 14672 ft | 389 kts | 24° |
| 2026-04-22 22:19 | 13.74617 | -89.20240 | 15174 ft | 393 kts | 35° |
| 2026-04-22 22:19 | 13.76660 | -89.18422 | 15671 ft | 396 kts | 47° |
| 2026-04-22 22:19 | 13.78461 | -89.16259 | 16174 ft | 400 kts | 50° |
| 2026-04-22 22:20 | 13.80265 | -89.14072 | 16668 ft | 403 kts | 49° |
| 2026-04-22 22:20 | 13.82095 | -89.11867 | 17147 ft | 406 kts | 49° |
| 2026-04-22 22:20 | 13.83943 | -89.09653 | 17616 ft | 410 kts | 49° |
| 2026-04-22 22:20 | 13.85812 | -89.07420 | 18081 ft | 413 kts | 49° |
| 2026-04-22 22:21 | 13.87696 | -89.05170 | 18499 ft | 417 kts | 49° |
| 2026-04-22 22:21 | 13.89597 | -89.02895 | 18887 ft | 421 kts | 49° |
| 2026-04-22 22:21 | 13.91507 | -89.00601 | 19268 ft | 423 kts | 49° |
| 2026-04-22 22:21 | 13.93427 | -88.98290 | 19658 ft | 427 kts | 49° |
| 2026-04-22 22:22 | 13.95361 | -88.95959 | 20037 ft | 429 kts | 49° |
| 2026-04-22 22:22 | 13.97310 | -88.93610 | 20394 ft | 433 kts | 49° |
| 2026-04-22 22:22 | 13.99269 | -88.91247 | 20773 ft | 436 kts | 49° |
| 2026-04-22 22:22 | 14.01271 | -88.88889 | 21150 ft | 438 kts | 48° |
| 2026-04-22 22:23 | 14.03291 | -88.86588 | 21501 ft | 441 kts | 47° |
| 2026-04-22 22:23 | 14.05382 | -88.84253 | 21877 ft | 444 kts | 47° |
| 2026-04-22 22:23 | 14.07489 | -88.81913 | 22257 ft | 448 kts | 47° |
| 2026-04-22 22:23 | 14.09610 | -88.79552 | 22601 ft | 450 kts | 47° |
| 2026-04-22 22:24 | 14.11736 | -88.77169 | 22945 ft | 453 kts | 47° |
| 2026-04-22 22:24 | 14.13863 | -88.74769 | 23298 ft | 455 kts | 47° |
| 2026-04-22 22:24 | 14.16002 | -88.72344 | 23644 ft | 458 kts | 47° |
| 2026-04-22 22:24 | 14.18140 | -88.69912 | 23905 ft | 460 kts | 47° |
| 2026-04-22 22:25 | 14.20295 | -88.67461 | 24183 ft | 462 kts | 47° |
| 2026-04-22 22:25 | 14.22460 | -88.65001 | 24512 ft | 464 kts | 47° |
| 2026-04-22 22:25 | 14.24633 | -88.62536 | 24796 ft | 466 kts | 46° |
| 2026-04-22 22:25 | 14.26996 | -88.60241 | 25049 ft | 467 kts | 38° |
| 2026-04-22 22:26 | 14.29627 | -88.58269 | 25325 ft | 469 kts | 34° |
| 2026-04-22 22:26 | 14.32259 | -88.56354 | 25610 ft | 471 kts | 34° |
| 2026-04-22 22:26 | 14.34942 | -88.54398 | 25876 ft | 473 kts | 34° |
| 2026-04-22 22:26 | 14.37632 | -88.52434 | 26176 ft | 475 kts | 34° |
| 2026-04-22 22:27 | 14.40335 | -88.50458 | 26425 ft | 477 kts | 34° |
| 2026-04-22 22:27 | 14.43044 | -88.48475 | 26680 ft | 479 kts | 34° |
| 2026-04-22 22:27 | 14.45770 | -88.46479 | 26934 ft | 481 kts | 34° |
| 2026-04-22 22:27 | 14.48504 | -88.44474 | 27202 ft | 483 kts | 34° |
| 2026-04-22 22:28 | 14.51247 | -88.42461 | 27444 ft | 485 kts | 34° |
| 2026-04-22 22:28 | 14.53993 | -88.40447 | 27702 ft | 487 kts | 34° |
| 2026-04-22 22:28 | 14.56759 | -88.38416 | 27950 ft | 488 kts | 34° |
| 2026-04-22 22:28 | 14.59536 | -88.36376 | 28207 ft | 490 kts | 34° |
| 2026-04-22 22:29 | 14.62310 | -88.34339 | 28571 ft | 489 kts | 34° |
| 2026-04-22 22:29 | 14.65081 | -88.32306 | 28887 ft | 489 kts | 33° |
| 2026-04-22 22:29 | 14.67857 | -88.30271 | 29213 ft | 489 kts | 33° |
| 2026-04-22 22:29 | 14.70586 | -88.28268 | 29532 ft | 488 kts | 33° |
| 2026-04-22 22:30 | 14.73356 | -88.26237 | 29867 ft | 488 kts | 33° |
| 2026-04-22 22:30 | 14.76121 | -88.24206 | 30209 ft | 487 kts | 33° |
| 2026-04-22 22:30 | 14.78881 | -88.22178 | 30506 ft | 487 kts | 33° |
| 2026-04-22 22:30 | 14.81646 | -88.20149 | 30826 ft | 486 kts | 33° |
| 2026-04-22 22:31 | 14.84401 | -88.18125 | 31134 ft | 486 kts | 33° |
| 2026-04-22 22:31 | 14.87150 | -88.16102 | 31430 ft | 485 kts | 33° |
| 2026-04-22 22:31 | 14.89897 | -88.14079 | 31765 ft | 484 kts | 33° |
| 2026-04-22 22:31 | 14.92643 | -88.12058 | 32064 ft | 484 kts | 33° |
| 2026-04-22 22:32 | 14.95387 | -88.10037 | 32293 ft | 486 kts | 33° |
| 2026-04-22 22:32 | 14.98139 | -88.08011 | 32578 ft | 485 kts | 33° |
| 2026-04-22 22:32 | 15.00894 | -88.05981 | 32888 ft | 485 kts | 33° |
| 2026-04-22 22:32 | 15.03637 | -88.03956 | 33197 ft | 484 kts | 33° |
| 2026-04-22 22:33 | 15.06373 | -88.01935 | 33541 ft | 484 kts | 33° |
| 2026-04-22 22:33 | 15.09076 | -87.99938 | 33834 ft | 483 kts | 33° |
| 2026-04-22 22:33 | 15.11809 | -87.97921 | 34125 ft | 482 kts | 33° |
| 2026-04-22 22:33 | 15.14536 | -87.95910 | 34390 ft | 482 kts | 33° |
| 2026-04-22 22:34 | 15.17268 | -87.93895 | 34646 ft | 482 kts | 33° |
| 2026-04-22 22:34 | 15.19997 | -87.91880 | 34890 ft | 482 kts | 33° |
| 2026-04-22 22:34 | 15.22720 | -87.89866 | 35130 ft | 482 kts | 33° |
| 2026-04-22 22:34 | 15.25449 | -87.87851 | 35373 ft | 481 kts | 33° |
| 2026-04-22 22:35 | 15.28181 | -87.85837 | 35624 ft | 481 kts | 33° |
| 2026-04-22 22:35 | 15.30906 | -87.83826 | 35847 ft | 482 kts | 33° |
| 2026-04-22 22:35 | 15.33632 | -87.81811 | 35933 ft | 483 kts | 33° |
| 2026-04-22 22:36 | 15.39122 | -87.77743 | 35953 ft | 485 kts | 33° |
| 2026-04-22 22:36 | 15.44609 | -87.73677 | 35943 ft | 485 kts | 33° |
| 2026-04-22 22:37 | 15.50065 | -87.69629 | 35979 ft | 485 kts | 33° |
| 2026-04-22 22:37 | 15.55551 | -87.65564 | 35974 ft | 485 kts | 33° |
| 2026-04-22 22:38 | 15.61043 | -87.61497 | 35971 ft | 485 kts | 33° |
| 2026-04-22 22:38 | 15.66529 | -87.57429 | 35975 ft | 485 kts | 33° |
| 2026-04-22 22:39 | 15.72013 | -87.53347 | 35972 ft | 485 kts | 33° |
| 2026-04-22 22:39 | 15.77470 | -87.49283 | 35975 ft | 486 kts | 33° |
| 2026-04-22 22:40 | 15.82969 | -87.45204 | 35977 ft | 486 kts | 33° |
| 2026-04-22 22:40 | 15.88466 | -87.41115 | 35991 ft | 486 kts | 33° |
| 2026-04-22 22:41 | 15.93971 | -87.37020 | 35977 ft | 487 kts | 33° |
| 2026-04-22 22:41 | 15.99501 | -87.32960 | 36001 ft | 487 kts | 32° |
| 2026-04-22 22:42 | 16.05040 | -87.28915 | 35974 ft | 487 kts | 32° |
| 2026-04-22 22:42 | 16.10539 | -87.24885 | 35972 ft | 487 kts | 33° |
| 2026-04-22 22:43 | 16.16062 | -87.20817 | 35973 ft | 487 kts | 33° |
| 2026-04-22 22:43 | 16.21585 | -87.16743 | 35971 ft | 486 kts | 33° |
| 2026-04-22 22:44 | 16.27104 | -87.12674 | 35969 ft | 486 kts | 33° |
| 2026-04-22 22:44 | 16.32632 | -87.08605 | 35970 ft | 486 kts | 33° |
| 2026-04-22 22:45 | 16.38152 | -87.04527 | 35975 ft | 487 kts | 33° |
| 2026-04-22 22:45 | 16.43633 | -87.00468 | 35973 ft | 487 kts | 33° |
| 2026-04-22 22:46 | 16.49153 | -86.96388 | 35975 ft | 487 kts | 32° |
| 2026-04-22 22:46 | 16.54682 | -86.92306 | 35984 ft | 487 kts | 32° |
| 2026-04-22 22:47 | 16.60207 | -86.88231 | 35984 ft | 487 kts | 33° |
| 2026-04-22 22:47 | 16.65731 | -86.84140 | 35988 ft | 487 kts | 33° |
| 2026-04-22 22:48 | 16.71219 | -86.80069 | 35998 ft | 487 kts | 32° |
| 2026-04-22 22:48 | 16.76746 | -86.75970 | 35994 ft | 487 kts | 33° |
| 2026-04-22 22:49 | 16.82270 | -86.71870 | 35988 ft | 487 kts | 33° |
| 2026-04-22 22:49 | 16.87791 | -86.67765 | 35986 ft | 487 kts | 33° |
| 2026-04-22 22:50 | 16.93310 | -86.63662 | 35982 ft | 487 kts | 33° |
| 2026-04-22 22:50 | 16.98831 | -86.59554 | 35981 ft | 487 kts | 33° |
| 2026-04-22 22:51 | 17.04311 | -86.55475 | 35990 ft | 487 kts | 32° |
| 2026-04-22 22:51 | 17.09831 | -86.51374 | 35982 ft | 487 kts | 32° |
| 2026-04-22 22:52 | 17.15350 | -86.47268 | 35974 ft | 487 kts | 32° |
| 2026-04-22 22:52 | 17.20869 | -86.43146 | 35976 ft | 487 kts | 33° |
| 2026-04-22 22:53 | 17.26390 | -86.39025 | 35980 ft | 488 kts | 33° |
| 2026-04-22 22:53 | 17.31911 | -86.34897 | 35982 ft | 487 kts | 32° |
| 2026-04-22 22:54 | 17.37393 | -86.30804 | 35990 ft | 487 kts | 32° |
| 2026-04-22 22:54 | 17.42908 | -86.26674 | 35977 ft | 488 kts | 32° |
| 2026-04-22 22:55 | 17.48425 | -86.22540 | 35971 ft | 488 kts | 32° |
| 2026-04-22 22:55 | 17.56700 | -86.16332 | 35962 ft | 488 kts | 32° |
| 2026-04-22 22:56 | 17.62227 | -86.12181 | 35965 ft | 489 kts | 32° |
| 2026-04-22 22:56 | 17.67767 | -86.08027 | 35966 ft | 490 kts | 32° |
| 2026-04-22 22:57 | 17.73277 | -86.03890 | 35975 ft | 491 kts | 32° |
| 2026-04-22 22:57 | 17.78825 | -85.99714 | 35971 ft | 491 kts | 32° |
| 2026-04-22 22:58 | 17.84387 | -85.95528 | 35974 ft | 492 kts | 32° |
| 2026-04-22 22:58 | 17.89948 | -85.91340 | 35975 ft | 492 kts | 32° |
| 2026-04-22 22:59 | 17.95516 | -85.87144 | 35978 ft | 492 kts | 32° |
| 2026-04-22 22:59 | 18.01077 | -85.82948 | 35980 ft | 493 kts | 32° |
| 2026-04-22 23:00 | 18.06644 | -85.78743 | 35981 ft | 493 kts | 32° |
| 2026-04-22 23:00 | 18.12171 | -85.74560 | 35987 ft | 493 kts | 32° |
| 2026-04-22 23:01 | 18.17740 | -85.70348 | 35992 ft | 493 kts | 32° |
| 2026-04-22 23:01 | 18.23310 | -85.66135 | 35992 ft | 493 kts | 32° |
| 2026-04-22 23:02 | 18.28876 | -85.61918 | 35989 ft | 493 kts | 32° |
| 2026-04-22 23:02 | 18.34438 | -85.57705 | 35988 ft | 493 kts | 32° |
| 2026-04-22 23:03 | 18.40011 | -85.53488 | 36004 ft | 493 kts | 32° |
| 2026-04-22 23:03 | 18.45577 | -85.49260 | 36000 ft | 494 kts | 32° |
| 2026-04-22 23:04 | 18.51119 | -85.45046 | 36000 ft | 494 kts | 32° |
| 2026-04-22 23:04 | 18.56691 | -85.40798 | 35998 ft | 494 kts | 32° |
| 2026-04-22 23:05 | 18.62268 | -85.36556 | 35999 ft | 494 kts | 32° |
| 2026-04-22 23:05 | 18.67834 | -85.32325 | 35998 ft | 493 kts | 32° |
| 2026-04-22 23:06 | 18.73403 | -85.28079 | 36012 ft | 494 kts | 32° |
| 2026-04-22 23:06 | 18.78967 | -85.23828 | 36003 ft | 494 kts | 32° |
| 2026-04-22 23:07 | 18.84548 | -85.19564 | 35990 ft | 495 kts | 32° |
| 2026-04-22 23:07 | 18.90089 | -85.15339 | 35992 ft | 495 kts | 32° |
| 2026-04-22 23:08 | 18.95671 | -85.11066 | 36001 ft | 495 kts | 32° |
| 2026-04-22 23:08 | 19.01252 | -85.06785 | 36001 ft | 496 kts | 32° |
| 2026-04-22 23:09 | 19.06829 | -85.02507 | 36016 ft | 496 kts | 32° |
| 2026-04-22 23:09 | 19.11474 | -84.98950 | 36005 ft | 496 kts | 32° |
| 2026-04-22 23:10 | 19.17070 | -84.94658 | 35998 ft | 497 kts | 32° |
| 2026-04-22 23:10 | 19.22667 | -84.90358 | 35997 ft | 497 kts | 32° |
| 2026-04-22 23:11 | 19.28232 | -84.86081 | 36001 ft | 498 kts | 32° |
| 2026-04-22 23:11 | 19.33836 | -84.81773 | 36002 ft | 498 kts | 32° |
| 2026-04-22 23:12 | 19.39435 | -84.77458 | 36022 ft | 498 kts | 32° |
| 2026-04-22 23:12 | 19.45045 | -84.73133 | 36008 ft | 499 kts | 32° |
| 2026-04-22 23:13 | 19.50657 | -84.68807 | 36002 ft | 499 kts | 32° |
| 2026-04-22 23:13 | 19.56239 | -84.64490 | 36003 ft | 499 kts | 32° |
| 2026-04-22 23:14 | 19.61850 | -84.60154 | 36009 ft | 499 kts | 32° |
| 2026-04-22 23:14 | 19.67467 | -84.55801 | 36011 ft | 499 kts | 32° |
| 2026-04-22 23:15 | 19.73077 | -84.51452 | 36026 ft | 500 kts | 32° |
| 2026-04-22 23:15 | 19.78690 | -84.47100 | 36012 ft | 500 kts | 31° |
| 2026-04-22 23:16 | 19.84284 | -84.42772 | 36009 ft | 501 kts | 31° |
| 2026-04-22 23:16 | 19.89912 | -84.38411 | 36015 ft | 501 kts | 32° |
| 2026-04-22 23:17 | 19.95539 | -84.34035 | 36017 ft | 501 kts | 32° |
| 2026-04-22 23:17 | 20.01166 | -84.29656 | 36020 ft | 501 kts | 32° |
| 2026-04-22 23:18 | 20.06795 | -84.25277 | 36031 ft | 502 kts | 31° |
| 2026-04-22 23:18 | 20.12429 | -84.20890 | 36018 ft | 502 kts | 31° |
| 2026-04-22 23:19 | 20.18062 | -84.16500 | 36019 ft | 502 kts | 31° |
| 2026-04-22 23:19 | 20.23699 | -84.12104 | 36016 ft | 502 kts | 31° |
| 2026-04-22 23:20 | 20.29298 | -84.07730 | 36023 ft | 503 kts | 31° |
| 2026-04-22 23:20 | 20.34931 | -84.03322 | 36025 ft | 503 kts | 31° |
| 2026-04-22 23:21 | 20.40569 | -83.98903 | 36044 ft | 503 kts | 31° |
| 2026-04-22 23:21 | 20.46203 | -83.94478 | 36034 ft | 503 kts | 31° |
| 2026-04-22 23:22 | 20.51791 | -83.89957 | 36028 ft | 504 kts | 33° |
| 2026-04-22 23:22 | 20.57332 | -83.85362 | 36029 ft | 505 kts | 33° |
| 2026-04-22 23:23 | 20.62888 | -83.80769 | 36029 ft | 505 kts | 33° |
| 2026-04-22 23:23 | 20.68412 | -83.76229 | 36029 ft | 505 kts | 32° |
| 2026-04-22 23:24 | 20.73984 | -83.71660 | 36047 ft | 505 kts | 32° |
| 2026-04-22 23:24 | 20.79552 | -83.67085 | 36039 ft | 505 kts | 32° |
| 2026-04-22 23:25 | 20.85116 | -83.62497 | 36037 ft | 505 kts | 32° |
| 2026-04-22 23:25 | 20.90683 | -83.57903 | 36035 ft | 505 kts | 32° |
| 2026-04-22 23:26 | 20.96253 | -83.53303 | 36033 ft | 506 kts | 32° |
| 2026-04-22 23:26 | 21.01813 | -83.48706 | 36062 ft | 506 kts | 32° |
| 2026-04-22 23:27 | 21.07345 | -83.44124 | 36054 ft | 506 kts | 32° |
| 2026-04-22 23:27 | 21.12920 | -83.39526 | 36048 ft | 506 kts | 32° |
| 2026-04-22 23:28 | 21.18518 | -83.34954 | 36051 ft | 506 kts | 32° |
| 2026-04-22 23:28 | 21.24118 | -83.30382 | 36048 ft | 506 kts | 32° |
| 2026-04-22 23:29 | 21.29710 | -83.25790 | 36053 ft | 506 kts | 32° |
| 2026-04-22 23:29 | 21.35296 | -83.21188 | 36051 ft | 506 kts | 32° |
| 2026-04-22 23:30 | 21.40883 | -83.16589 | 36046 ft | 506 kts | 32° |
| 2026-04-22 23:30 | 21.46433 | -83.12017 | 36046 ft | 506 kts | 32° |
| 2026-04-22 23:31 | 21.52023 | -83.07417 | 36054 ft | 506 kts | 32° |
| 2026-04-22 23:31 | 21.57615 | -83.02812 | 36051 ft | 506 kts | 32° |
| 2026-04-22 23:32 | 21.63199 | -82.98201 | 36052 ft | 506 kts | 32° |
| 2026-04-22 23:32 | 21.68780 | -82.93589 | 36076 ft | 506 kts | 32° |
| 2026-04-22 23:33 | 21.74417 | -82.89052 | 36070 ft | 504 kts | 29° |
| 2026-04-22 23:33 | 21.80199 | -82.84922 | 36069 ft | 502 kts | 26° |
| 2026-04-22 23:34 | 21.86088 | -82.80896 | 36056 ft | 502 kts | 26° |
| 2026-04-22 23:34 | 21.91943 | -82.76793 | 36064 ft | 502 kts | 27° |
| 2026-04-22 23:35 | 21.97753 | -82.72609 | 36088 ft | 503 kts | 27° |
| 2026-04-22 23:35 | 22.03530 | -82.68444 | 36080 ft | 502 kts | 27° |
| 2026-04-22 23:36 | 22.09341 | -82.64268 | 36075 ft | 502 kts | 27° |
| 2026-04-22 23:36 | 22.15155 | -82.60103 | 36073 ft | 502 kts | 27° |
| 2026-04-22 23:37 | 22.20973 | -82.55929 | 36071 ft | 502 kts | 27° |
| 2026-04-22 23:37 | 22.26795 | -82.51746 | 36070 ft | 502 kts | 27° |
| 2026-04-22 23:38 | 22.32606 | -82.47571 | 36099 ft | 502 kts | 27° |
| 2026-04-22 23:38 | 22.38381 | -82.43416 | 36091 ft | 502 kts | 27° |
| 2026-04-22 23:39 | 22.44192 | -82.39221 | 36087 ft | 502 kts | 27° |
| 2026-04-22 23:39 | 22.49993 | -82.35028 | 36083 ft | 502 kts | 27° |
| 2026-04-22 23:40 | 22.55804 | -82.30835 | 36083 ft | 502 kts | 27° |
| 2026-04-22 23:40 | 22.61606 | -82.26639 | 36114 ft | 502 kts | 27° |
| 2026-04-22 23:41 | 22.67414 | -82.22432 | 36095 ft | 502 kts | 27° |
| 2026-04-22 23:41 | 22.73149 | -82.18208 | 36090 ft | 503 kts | 27° |
| 2026-04-22 23:42 | 22.78898 | -82.13885 | 36095 ft | 503 kts | 28° |
| 2026-04-22 23:42 | 22.84647 | -82.09557 | 36093 ft | 503 kts | 28° |
| 2026-04-22 23:43 | 22.90405 | -82.05247 | 36090 ft | 503 kts | 27° |
| 2026-04-22 23:43 | 22.96173 | -82.00934 | 36108 ft | 504 kts | 27° |
| 2026-04-22 23:44 | 23.01902 | -81.96634 | 36102 ft | 504 kts | 27° |
| 2026-04-22 23:44 | 23.07691 | -81.92336 | 36106 ft | 504 kts | 27° |
| 2026-04-22 23:45 | 23.13493 | -81.88061 | 36103 ft | 504 kts | 27° |
| 2026-04-22 23:45 | 23.19290 | -81.83773 | 36106 ft | 504 kts | 27° |
| 2026-04-22 23:46 | 23.25081 | -81.79454 | 36125 ft | 504 kts | 27° |
| 2026-04-22 23:46 | 23.30870 | -81.75142 | 36120 ft | 505 kts | 27° |
| 2026-04-22 23:47 | 23.36627 | -81.70858 | 36114 ft | 505 kts | 27° |
| 2026-04-22 23:47 | 23.42426 | -81.66538 | 36116 ft | 505 kts | 27° |
| 2026-04-22 23:48 | 23.48227 | -81.62205 | 36123 ft | 505 kts | 27° |
| 2026-04-22 23:48 | 23.54019 | -81.57867 | 36133 ft | 505 kts | 26° |
| 2026-04-22 23:49 | 23.59806 | -81.53530 | 36102 ft | 505 kts | 26° |
| 2026-04-22 23:49 | 23.65562 | -81.49226 | 36112 ft | 505 kts | 26° |
| 2026-04-22 23:50 | 23.71353 | -81.44894 | 36098 ft | 505 kts | 26° |
| 2026-04-22 23:50 | 23.77154 | -81.40545 | 36105 ft | 506 kts | 26° |
| 2026-04-22 23:51 | 23.82946 | -81.36189 | 36134 ft | 506 kts | 26° |
| 2026-04-22 23:51 | 23.88734 | -81.31825 | 36131 ft | 506 kts | 26° |
| 2026-04-22 23:52 | 23.94531 | -81.27452 | 36131 ft | 506 kts | 26° |
| 2026-04-22 23:52 | 24.00595 | -81.23870 | 36123 ft | 486 kts | 10° |
| 2026-04-22 23:53 | 24.03801 | -81.22855 | 36130 ft | 474 kts | 1° |
| 2026-04-22 23:53 | 24.06977 | -81.22318 | 36125 ft | 466 kts | 357° |
| 2026-04-22 23:53 | 24.13412 | -81.21408 | 36150 ft | 467 kts | 357° |
| 2026-04-22 23:54 | 24.19849 | -81.20484 | 36146 ft | 466 kts | 357° |
| 2026-04-22 23:54 | 24.26279 | -81.19555 | 36141 ft | 466 kts | 357° |
| 2026-04-22 23:55 | 24.32705 | -81.18626 | 36134 ft | 466 kts | 357° |
| 2026-04-22 23:55 | 24.39133 | -81.17696 | 36132 ft | 466 kts | 357° |
| 2026-04-22 23:56 | 24.45555 | -81.16766 | 36131 ft | 466 kts | 357° |
| 2026-04-22 23:56 | 24.51935 | -81.15844 | 36135 ft | 466 kts | 357° |
| 2026-04-22 23:57 | 24.58361 | -81.14919 | 36135 ft | 465 kts | 357° |
| 2026-04-22 23:57 | 24.64773 | -81.14113 | 36137 ft | 462 kts | 355° |
| 2026-04-22 23:58 | 24.71179 | -81.13485 | 36136 ft | 461 kts | 354° |
| 2026-04-22 23:58 | 24.77581 | -81.12875 | 36164 ft | 462 kts | 355° |
| 2026-04-22 23:59 | 24.83983 | -81.12212 | 36156 ft | 462 kts | 355° |
| 2026-04-22 23:59 | 24.90386 | -81.11516 | 36152 ft | 462 kts | 355° |
| 2026-04-23 00:00 | 24.99931 | -81.10491 | 36140 ft | 462 kts | 355° |
| 2026-04-23 00:01 | 25.06324 | -81.09819 | 36185 ft | 462 kts | 355° |
| 2026-04-23 00:01 | 25.12725 | -81.09141 | 36167 ft | 462 kts | 355° |
| 2026-04-23 00:02 | 25.19126 | -81.08458 | 36156 ft | 462 kts | 355° |
| 2026-04-23 00:02 | 25.25526 | -81.07780 | 36150 ft | 462 kts | 355° |
| 2026-04-23 00:03 | 25.31885 | -81.07115 | 36147 ft | 462 kts | 355° |
| 2026-04-23 00:03 | 25.38294 | -81.06437 | 36176 ft | 462 kts | 355° |
| 2026-04-23 00:04 | 25.44703 | -81.05745 | 36172 ft | 463 kts | 355° |
| 2026-04-23 00:04 | 25.51105 | -81.05049 | 36165 ft | 462 kts | 355° |
| 2026-04-23 00:05 | 25.57510 | -81.04363 | 36164 ft | 462 kts | 355° |
| 2026-04-23 00:05 | 25.63917 | -81.03679 | 36161 ft | 463 kts | 355° |
| 2026-04-23 00:06 | 25.70285 | -81.02997 | 36186 ft | 463 kts | 355° |
| 2026-04-23 00:06 | 25.76683 | -81.02319 | 36181 ft | 461 kts | 355° |
| 2026-04-23 00:07 | 25.83067 | -81.01632 | 36173 ft | 461 kts | 355° |
| 2026-04-23 00:07 | 25.89449 | -81.00937 | 36172 ft | 461 kts | 355° |
| 2026-04-23 00:08 | 25.95826 | -81.00249 | 36165 ft | 460 kts | 355° |
| 2026-04-23 00:08 | 26.02159 | -80.99571 | 36194 ft | 460 kts | 355° |
| 2026-04-23 00:09 | 26.08522 | -80.98885 | 36184 ft | 459 kts | 355° |
| 2026-04-23 00:09 | 26.14875 | -80.98198 | 36179 ft | 459 kts | 355° |
| 2026-04-23 00:10 | 26.21228 | -80.97507 | 36173 ft | 458 kts | 355° |
| 2026-04-23 00:10 | 26.27572 | -80.96822 | 36167 ft | 458 kts | 355° |
| 2026-04-23 00:11 | 26.33911 | -80.96147 | 36189 ft | 456 kts | 353° |
| 2026-04-23 00:11 | 26.37020 | -80.96218 | 36183 ft | 440 kts | 342° |
| 2026-04-23 00:11 | 26.39923 | -80.96899 | 36175 ft | 426 kts | 332° |
| 2026-04-23 00:11 | 26.42622 | -80.98127 | 36171 ft | 413 kts | 323° |
| 2026-04-23 00:12 | 26.45012 | -80.99808 | 36164 ft | 402 kts | 314° |
| 2026-04-23 00:12 | 26.48940 | -81.04091 | 36158 ft | 393 kts | 306° |
| 2026-04-23 00:13 | 26.52688 | -81.08533 | 36153 ft | 393 kts | 306° |
| 2026-04-23 00:13 | 26.56447 | -81.12980 | 36153 ft | 394 kts | 306° |
| 2026-04-23 00:14 | 26.60203 | -81.17430 | 36179 ft | 394 kts | 306° |
| 2026-04-23 00:14 | 26.64043 | -81.21781 | 36150 ft | 402 kts | 313° |
| 2026-04-23 00:15 | 26.68608 | -81.25495 | 36145 ft | 407 kts | 316° |
| 2026-04-23 00:15 | 26.73223 | -81.29183 | 36154 ft | 408 kts | 316° |
| 2026-04-23 00:16 | 26.77836 | -81.32882 | 36150 ft | 408 kts | 316° |
| 2026-04-23 00:16 | 26.82454 | -81.36591 | 36150 ft | 408 kts | 316° |
| 2026-04-23 00:17 | 26.87066 | -81.40300 | 36157 ft | 409 kts | 316° |
| 2026-04-23 00:17 | 26.91650 | -81.44007 | 36188 ft | 409 kts | 316° |
| 2026-04-23 00:18 | 26.96264 | -81.47735 | 36176 ft | 409 kts | 316° |
| 2026-04-23 00:18 | 27.00885 | -81.51463 | 36170 ft | 409 kts | 316° |
| 2026-04-23 00:19 | 27.05508 | -81.55200 | 36171 ft | 410 kts | 316° |
| 2026-04-23 00:19 | 27.10129 | -81.58944 | 36173 ft | 410 kts | 316° |
| 2026-04-23 00:20 | 27.14740 | -81.62686 | 36174 ft | 409 kts | 316° |
| 2026-04-23 00:20 | 27.19360 | -81.66438 | 36161 ft | 410 kts | 316° |
| 2026-04-23 00:21 | 27.23978 | -81.70194 | 36195 ft | 410 kts | 316° |
| 2026-04-23 00:21 | 27.28951 | -81.73400 | 36184 ft | 427 kts | 332° |
| 2026-04-23 00:21 | 27.31810 | -81.74397 | 36022 ft | 432 kts | 334° |
| 2026-04-23 00:22 | 27.34696 | -81.75357 | 35772 ft | 432 kts | 335° |
| 2026-04-23 00:22 | 27.37583 | -81.76315 | 35539 ft | 433 kts | 335° |
| 2026-04-23 00:22 | 27.40471 | -81.77276 | 35296 ft | 433 kts | 335° |
| 2026-04-23 00:22 | 27.43362 | -81.78244 | 35059 ft | 434 kts | 334° |
| 2026-04-23 00:23 | 27.46258 | -81.79219 | 34823 ft | 434 kts | 334° |
| 2026-04-23 00:23 | 27.49153 | -81.80195 | 34598 ft | 435 kts | 334° |
| 2026-04-23 00:23 | 27.52054 | -81.81174 | 34362 ft | 436 kts | 334° |
| 2026-04-23 00:23 | 27.54955 | -81.82156 | 34123 ft | 436 kts | 334° |
| 2026-04-23 00:24 | 27.57863 | -81.83142 | 33855 ft | 437 kts | 335° |
| 2026-04-23 00:24 | 27.60790 | -81.84091 | 33573 ft | 441 kts | 338° |
| 2026-04-23 00:24 | 27.63871 | -81.84630 | 32593 ft | 457 kts | 349° |
| 2026-04-23 00:24 | 27.67024 | -81.84512 | 31538 ft | 463 kts | 0° |
| 2026-04-23 00:25 | 27.70173 | -81.83737 | 30464 ft | 467 kts | 11° |
| 2026-04-23 00:25 | 27.73269 | -81.82458 | 29175 ft | 478 kts | 14° |
| 2026-04-23 00:25 | 27.76405 | -81.81131 | 27874 ft | 484 kts | 14° |
| 2026-04-23 00:25 | 27.79580 | -81.79803 | 26589 ft | 490 kts | 15° |
| 2026-04-23 00:26 | 27.82793 | -81.78466 | 25353 ft | 491 kts | 15° |
| 2026-04-23 00:26 | 27.85955 | -81.77140 | 24226 ft | 476 kts | 15° |
| 2026-04-23 00:26 | 27.88995 | -81.75854 | 23244 ft | 458 kts | 16° |
| 2026-04-23 00:26 | 27.91949 | -81.74764 | 22435 ft | 434 kts | 9° |
| 2026-04-23 00:27 | 27.94863 | -81.74110 | 21697 ft | 425 kts | 5° |
| 2026-04-23 00:27 | 27.97772 | -81.73516 | 20965 ft | 426 kts | 6° |
| 2026-04-23 00:27 | 28.00677 | -81.72840 | 20245 ft | 427 kts | 11° |
| 2026-04-23 00:27 | 28.03470 | -81.71687 | 19514 ft | 430 kts | 21° |
| 2026-04-23 00:28 | 28.06049 | -81.70046 | 18811 ft | 433 kts | 31° |
| 2026-04-23 00:28 | 28.08475 | -81.68016 | 18058 ft | 433 kts | 34° |
| 2026-04-23 00:28 | 28.10884 | -81.65966 | 17145 ft | 429 kts | 34° |
| 2026-04-23 00:28 | 28.13212 | -81.63989 | 16573 ft | 412 kts | 34° |
| 2026-04-23 00:29 | 28.15369 | -81.61850 | 15977 ft | 413 kts | 46° |
| 2026-04-23 00:29 | 28.16916 | -81.59124 | 15408 ft | 413 kts | 64° |
| 2026-04-23 00:29 | 28.17690 | -81.56002 | 14846 ft | 412 kts | 79° |
| 2026-04-23 00:29 | 28.18309 | -81.52854 | 14279 ft | 406 kts | 70° |
| 2026-04-23 00:30 | 28.19342 | -81.49893 | 13653 ft | 403 kts | 65° |
| 2026-04-23 00:30 | 28.20428 | -81.46992 | 13062 ft | 398 kts | 65° |
| 2026-04-23 00:30 | 28.21536 | -81.44137 | 12446 ft | 394 kts | 64° |
| 2026-04-23 00:30 | 28.22645 | -81.41355 | 11802 ft | 391 kts | 64° |
| 2026-04-23 00:31 | 28.23770 | -81.38570 | 11197 ft | 387 kts | 64° |
| 2026-04-23 00:31 | 28.24851 | -81.35894 | 10984 ft | 357 kts | 65° |
| 2026-04-23 00:31 | 28.25839 | -81.33432 | 10846 ft | 329 kts | 65° |
| 2026-04-23 00:31 | 28.26748 | -81.31149 | 10582 ft | 310 kts | 65° |
| 2026-04-23 00:32 | 28.27619 | -81.28956 | 10356 ft | 303 kts | 65° |
| 2026-04-23 00:32 | 28.28481 | -81.26783 | 10119 ft | 299 kts | 67° |
| 2026-04-23 00:32 | 28.28767 | -81.26064 | 10036 ft | 298 kts | 67° |
| 2026-04-23 00:32 | 28.30165 | -81.22524 | 9782 ft | 296 kts | 66° |
| 2026-04-23 00:33 | 28.31005 | -81.20397 | 9653 ft | 294 kts | 66° |
| 2026-04-23 00:33 | 28.31843 | -81.18283 | 9521 ft | 293 kts | 66° |
| 2026-04-23 00:33 | 28.32546 | -81.16122 | 9391 ft | 292 kts | 78° |
| 2026-04-23 00:33 | 28.32670 | -81.13847 | 9226 ft | 290 kts | 96° |
| 2026-04-23 00:34 | 28.32422 | -81.12358 | 8919 ft | 290 kts | 108° |
| 2026-04-23 00:34 | 28.31541 | -81.10305 | 8459 ft | 286 kts | 125° |
| 2026-04-23 00:34 | 28.30421 | -81.08466 | 7912 ft | 282 kts | 124° |
| 2026-04-23 00:34 | 28.28957 | -81.06047 | 7241 ft | 280 kts | 124° |
| 2026-04-23 00:35 | 28.27853 | -81.04218 | 6744 ft | 282 kts | 123° |
| 2026-04-23 00:35 | 28.26755 | -81.02393 | 6175 ft | 277 kts | 123° |
| 2026-04-23 00:35 | 28.26025 | -81.01181 | 5754 ft | 273 kts | 123° |
| 2026-04-23 00:35 | 28.24962 | -80.99420 | 5313 ft | 268 kts | 122° |
| 2026-04-23 00:36 | 28.23918 | -80.97692 | 4978 ft | 261 kts | 123° |
| 2026-04-23 00:36 | 28.22948 | -80.96089 | 4847 ft | 238 kts | 123° |
| 2026-04-23 00:36 | 28.22032 | -80.94575 | 4572 ft | 229 kts | 123° |
| 2026-04-23 00:36 | 28.21149 | -80.93115 | 4442 ft | 220 kts | 123° |
| 2026-04-23 00:37 | 28.20299 | -80.91707 | 4311 ft | 212 kts | 122° |
| 2026-04-23 00:37 | 28.19482 | -80.90349 | 4187 ft | 205 kts | 123° |
| 2026-04-23 00:37 | 28.18665 | -80.89061 | 4028 ft | 200 kts | 129° |
| 2026-04-23 00:37 | 28.17575 | -80.88009 | 3514 ft | 215 kts | 146° |
| 2026-04-23 00:38 | 28.16141 | -80.87356 | 2926 ft | 231 kts | 165° |
| 2026-04-23 00:38 | 28.14525 | -80.87112 | 2461 ft | 232 kts | 169° |
| 2026-04-23 00:38 | 28.12972 | -80.86900 | 2265 ft | 216 kts | 169° |
| 2026-04-23 00:38 | 28.11542 | -80.86703 | 2139 ft | 199 kts | 169° |
| 2026-04-23 00:39 | 28.10264 | -80.86397 | 2063 ft | 175 kts | 149° |
| 2026-04-23 00:39 | 28.09467 | -80.85545 | 2015 ft | 147 kts | 117° |
| 2026-04-23 00:39 | 28.09230 | -80.84485 | 1955 ft | 136 kts | 89° |
| 2026-04-23 00:39 | 28.09283 | -80.83444 | 1910 ft | 133 kts | 88° |
| 2026-04-23 00:40 | 28.09334 | -80.82406 | 1872 ft | 131 kts | 88° |
| 2026-04-23 00:40 | 28.09385 | -80.81373 | 1835 ft | 131 kts | 89° |
| 2026-04-23 00:40 | 28.09435 | -80.80357 | 1803 ft | 128 kts | 89° |
| 2026-04-23 00:40 | 28.09484 | -80.79355 | 1785 ft | 127 kts | 89° |
| 2026-04-23 00:41 | 28.09533 | -80.78356 | 1731 ft | 127 kts | 89° |
| 2026-04-23 00:41 | 28.09585 | -80.77350 | 1678 ft | 129 kts | 88° |
| 2026-04-23 00:41 | 28.09637 | -80.76338 | 1603 ft | 129 kts | 91° |
| 2026-04-23 00:41 | 28.09687 | -80.75322 | 1514 ft | 129 kts | 90° |
| 2026-04-23 00:42 | 28.09739 | -80.74316 | 1434 ft | 128 kts | 88° |
| 2026-04-23 00:42 | 28.09791 | -80.73319 | 1280 ft | 126 kts | 87° |
| 2026-04-23 00:42 | 28.09842 | -80.72312 | 1072 ft | 129 kts | 91° |
| 2026-04-23 00:42 | 28.09889 | -80.71318 | 904 ft | 129 kts | 89° |
| 2026-04-23 00:43 | 28.09932 | -80.70304 | 729 ft | 130 kts | 89° |
| 2026-04-23 00:43 | 28.09987 | -80.69278 | 553 ft | 130 kts | 90° |
| 2026-04-23 00:43 | 28.10032 | -80.68256 | 385 ft | 131 kts | 90° |
| 2026-04-23 00:43 | 28.10084 | -80.67232 | 256 ft | 130 kts | 90° |
| 2026-04-23 00:44 | 28.10133 | -80.66201 | 104 ft | 131 kts | 89° |
| 2026-04-23 00:44 | 28.10181 | -80.65204 | 43 ft | 117 kts | 88° |
| 2026-04-23 00:44 | 28.10208 | -80.64459 | 37 ft | 71 kts | 87° |
| 2026-04-23 00:44 | 28.10226 | -80.64093 | 36 ft | 26 kts | 86° |
| 2026-04-23 00:45 | 28.10200 | -80.63968 | 36 ft | 16 kts | 144° |
| 2026-04-23 00:45 | 28.10190 | -80.63961 | 36 ft | 0 kts | 149° |
| 2026-04-23 00:45 | 28.10183 | -80.63958 | 36 ft | 6 kts | 157° |
| 2026-04-23 00:46 | 28.10098 | -80.63918 | 36 ft | 15 kts | 158° |
| 2026-04-23 00:46 | 28.09995 | -80.63871 | 39 ft | 17 kts | 156° |
| 2026-04-23 00:46 | 28.09880 | -80.63814 | 38 ft | 20 kts | 156° |
| 2026-04-23 00:46 | 28.09746 | -80.63749 | 39 ft | 22 kts | 157° |
| 2026-04-23 00:47 | 28.09637 | -80.63693 | 40 ft | 10 kts | 141° |
| 2026-04-23 00:47 | 28.09647 | -80.63603 | 35 ft | 14 kts | 67° |
| 2026-04-23 00:47 | 28.09693 | -80.63481 | 34 ft | 19 kts | 50° |
| 2026-04-23 00:47 | 28.09776 | -80.63402 | 33 ft | 9 kts | 26° |
| 2026-04-23 00:48 | 28.09809 | -80.63414 | 34 ft | 4 kts | 359° |
| 2026-04-23 00:48 | 28.09825 | -80.63409 | 35 ft | 0 kts | 18° |
| 2026-04-23 00:48 | 28.09880 | -80.63363 | 35 ft | 17 kts | 41° |
| 2026-04-23 00:48 | 28.09923 | -80.63266 | 33 ft | 10 kts | 127° |
| 2026-04-23 00:49 | 28.09894 | -80.63192 | 33 ft | 12 kts | 89° |
| 2026-04-23 00:49 | 28.09879 | -80.63093 | 34 ft | 14 kts | 102° |
| 2026-04-23 00:49 | 28.09878 | -80.63085 | 35 ft | 0 kts | 102° |
| 2026-04-23 00:53 | 28.09878 | -80.63086 | 35 ft | 0 kts | 102° |